sensor_id;sensor_type;location;lat;lon;timestamp;temperature;humidity
10155;DHT22;5118;48.570;7.916;2023-03-15T00:01:05;3.70;99.90
10155;DHT22;5118;48.570;7.916;2023-03-15T00:03:34;3.60;99.90
10155;DHT22;5118;48.570;7.916;2023-03-15T00:06:05;3.60;99.90
10155;DHT22;5118;48.570;7.916;2023-03-15T00:08:34;3.50;99.90
10155;DHT22;5118;48.570;7.916;2023-03-15T00:11:03;3.50;99.90
10155;DHT22;5118;48.570;7.916;2023-03-15T00:13:32;3.40;99.90
10155;DHT22;5118;48.570;7.916;2023-03-15T00:16:01;3.40;99.90
10155;DHT22;5118;48.570;7.916;2023-03-15T00:18:30;3.30;99.90
10155;DHT22;5118;48.570;7.916;2023-03-15T00:20:59;3.20;99.90
10155;DHT22;5118;48.570;7.916;2023-03-15T00:23:29;3.20;99.90
10155;DHT22;5118;48.570;7.916;2023-03-15T00:25:58;3.10;99.90
10155;DHT22;5118;48.570;7.916;2023-03-15T00:28:26;3.10;99.90
10155;DHT22;5118;48.570;7.916;2023-03-15T00:31:06;3.10;99.90
10155;DHT22;5118;48.570;7.916;2023-03-15T00:33:35;3.20;99.90
10155;DHT22;5118;48.570;7.916;2023-03-15T00:36:05;3.20;99.90
10155;DHT22;5118;48.570;7.916;2023-03-15T00:38:36;3.20;99.90
10155;DHT22;5118;48.570;7.916;2023-03-15T00:41:05;3.20;99.90
10155;DHT22;5118;48.570;7.916;2023-03-15T00:43:34;3.20;99.90
10155;DHT22;5118;48.570;7.916;2023-03-15T00:46:03;3.10;99.90
10155;DHT22;5118;48.570;7.916;2023-03-15T00:48:33;3.10;99.90
10155;DHT22;5118;48.570;7.916;2023-03-15T00:51:03;3.00;99.90
10155;DHT22;5118;48.570;7.916;2023-03-15T00:53:32;2.90;99.90
10155;DHT22;5118;48.570;7.916;2023-03-15T00:56:07;2.90;99.90
10155;DHT22;5118;48.570;7.916;2023-03-15T00:58:36;2.70;99.90
10155;DHT22;5118;48.570;7.916;2023-03-15T01:01:08;2.60;99.90
10155;DHT22;5118;48.570;7.916;2023-03-15T01:03:37;2.50;99.90
10155;DHT22;5118;48.570;7.916;2023-03-15T01:06:06;2.50;99.90
10155;DHT22;5118;48.570;7.916;2023-03-15T01:08:35;2.40;99.90
10155;DHT22;5118;48.570;7.916;2023-03-15T01:11:07;2.30;99.90
10155;DHT22;5118;48.570;7.916;2023-03-15T01:13:36;2.20;99.90
10155;DHT22;5118;48.570;7.916;2023-03-15T01:16:05;2.20;99.90
10155;DHT22;5118;48.570;7.916;2023-03-15T01:18:35;2.10;99.90
10155;DHT22;5118;48.570;7.916;2023-03-15T01:21:06;2.00;99.90
10155;DHT22;5118;48.570;7.916;2023-03-15T01:23:34;1.90;99.90
10155;DHT22;5118;48.570;7.916;2023-03-15T01:26:04;1.90;99.90
10155;DHT22;5118;48.570;7.916;2023-03-15T01:28:33;1.90;99.90
10155;DHT22;5118;48.570;7.916;2023-03-15T01:31:02;1.80;99.90
10155;DHT22;5118;48.570;7.916;2023-03-15T01:33:31;1.80;99.90
10155;DHT22;5118;48.570;7.916;2023-03-15T01:36:01;1.80;99.90
10155;DHT22;5118;48.570;7.916;2023-03-15T01:38:30;1.70;99.90
10155;DHT22;5118;48.570;7.916;2023-03-15T01:40:59;1.70;99.90
10155;DHT22;5118;48.570;7.916;2023-03-15T01:43:29;1.60;99.90
10155;DHT22;5118;48.570;7.916;2023-03-15T01:48:41;1.50;99.90
10155;DHT22;5118;48.570;7.916;2023-03-15T01:51:19;1.50;99.90
10155;DHT22;5118;48.570;7.916;2023-03-15T01:53:52;1.40;99.90
10155;DHT22;5118;48.570;7.916;2023-03-15T01:56:22;1.40;99.90
10155;DHT22;5118;48.570;7.916;2023-03-15T01:58:53;1.30;99.90
10155;DHT22;5118;48.570;7.916;2023-03-15T02:01:23;1.30;99.90
10155;DHT22;5118;48.570;7.916;2023-03-15T02:03:55;1.20;99.90
10155;DHT22;5118;48.570;7.916;2023-03-15T02:06:30;1.20;99.90
10155;DHT22;5118;48.570;7.916;2023-03-15T02:09:03;1.10;99.90
10155;DHT22;5118;48.570;7.916;2023-03-15T02:11:36;1.10;99.90
10155;DHT22;5118;48.570;7.916;2023-03-15T02:14:05;1.10;99.90
10155;DHT22;5118;48.570;7.916;2023-03-15T02:16:38;1.10;99.90
10155;DHT22;5118;48.570;7.916;2023-03-15T02:19:23;1.00;99.90
10155;DHT22;5118;48.570;7.916;2023-03-15T02:22:00;1.00;99.90
10155;DHT22;5118;48.570;7.916;2023-03-15T02:24:37;0.90;99.90
10155;DHT22;5118;48.570;7.916;2023-03-15T02:27:10;0.90;99.90
10155;DHT22;5118;48.570;7.916;2023-03-15T02:29:42;0.90;99.90
10155;DHT22;5118;48.570;7.916;2023-03-15T02:32:11;0.90;99.90
10155;DHT22;5118;48.570;7.916;2023-03-15T02:34:39;0.90;99.90
10155;DHT22;5118;48.570;7.916;2023-03-15T02:37:08;1.00;99.90
10155;DHT22;5118;48.570;7.916;2023-03-15T02:39:36;1.00;99.90
10155;DHT22;5118;48.570;7.916;2023-03-15T02:42:05;1.10;99.90
10155;DHT22;5118;48.570;7.916;2023-03-15T02:44:35;1.10;99.90
10155;DHT22;5118;48.570;7.916;2023-03-15T02:47:08;1.10;99.90
10155;DHT22;5118;48.570;7.916;2023-03-15T02:49:40;1.10;99.90
10155;DHT22;5118;48.570;7.916;2023-03-15T02:52:10;1.10;99.90
10155;DHT22;5118;48.570;7.916;2023-03-15T02:54:40;1.00;99.90
10155;DHT22;5118;48.570;7.916;2023-03-15T02:57:10;1.00;99.90
10155;DHT22;5118;48.570;7.916;2023-03-15T02:59:39;1.00;99.90
10155;DHT22;5118;48.570;7.916;2023-03-15T03:02:10;1.00;99.90
10155;DHT22;5118;48.570;7.916;2023-03-15T03:04:40;0.90;99.90
10155;DHT22;5118;48.570;7.916;2023-03-15T03:07:09;0.80;99.90
10155;DHT22;5118;48.570;7.916;2023-03-15T03:09:45;0.70;99.90
10155;DHT22;5118;48.570;7.916;2023-03-15T03:12:15;0.50;99.90
10155;DHT22;5118;48.570;7.916;2023-03-15T03:14:44;0.40;99.90
10155;DHT22;5118;48.570;7.916;2023-03-15T03:17:17;0.30;99.90
10155;DHT22;5118;48.570;7.916;2023-03-15T03:19:45;0.20;99.90
10155;DHT22;5118;48.570;7.916;2023-03-15T03:22:16;0.20;99.90
10155;DHT22;5118;48.570;7.916;2023-03-15T03:24:44;0.10;99.90
10155;DHT22;5118;48.570;7.916;2023-03-15T03:27:15;0.10;99.90
10155;DHT22;5118;48.570;7.916;2023-03-15T03:29:45;0.00;99.90
10155;DHT22;5118;48.570;7.916;2023-03-15T03:32:14;0.00;99.90
10155;DHT22;5118;48.570;7.916;2023-03-15T03:34:44;0.10;99.90
10155;DHT22;5118;48.570;7.916;2023-03-15T03:37:16;0.10;99.90
10155;DHT22;5118;48.570;7.916;2023-03-15T03:40:00;0.20;99.90
10155;DHT22;5118;48.570;7.916;2023-03-15T03:42:32;0.30;99.90
10155;DHT22;5118;48.570;7.916;2023-03-15T03:45:02;0.30;99.90
10155;DHT22;5118;48.570;7.916;2023-03-15T03:47:39;0.30;99.90
10155;DHT22;5118;48.570;7.916;2023-03-15T03:50:10;0.30;99.90
10155;DHT22;5118;48.570;7.916;2023-03-15T03:52:39;0.30;99.90
10155;DHT22;5118;48.570;7.916;2023-03-15T03:55:14;0.20;99.90
10155;DHT22;5118;48.570;7.916;2023-03-15T03:57:43;0.20;99.90
10155;DHT22;5118;48.570;7.916;2023-03-15T04:00:19;0.10;99.90
10155;DHT22;5118;48.570;7.916;2023-03-15T04:02:48;0.00;99.90
10155;DHT22;5118;48.570;7.916;2023-03-15T04:05:21;-0.10;99.90
10155;DHT22;5118;48.570;7.916;2023-03-15T04:07:49;-0.10;99.90
10155;DHT22;5118;48.570;7.916;2023-03-15T04:10:18;-0.20;99.90
10155;DHT22;5118;48.570;7.916;2023-03-15T04:12:53;-0.30;99.90
10155;DHT22;5118;48.570;7.916;2023-03-15T04:15:22;-0.30;99.90
10155;DHT22;5118;48.570;7.916;2023-03-15T04:17:51;-0.30;99.90
10155;DHT22;5118;48.570;7.916;2023-03-15T04:20:25;-0.40;99.90
10155;DHT22;5118;48.570;7.916;2023-03-15T04:22:54;-0.40;99.90
10155;DHT22;5118;48.570;7.916;2023-03-15T04:25:22;-0.40;99.90
10155;DHT22;5118;48.570;7.916;2023-03-15T04:28:12;-0.50;99.90
10155;DHT22;5118;48.570;7.916;2023-03-15T04:30:49;-0.50;99.90
10155;DHT22;5118;48.570;7.916;2023-03-15T04:33:35;-0.60;99.90
10155;DHT22;5118;48.570;7.916;2023-03-15T04:36:23;-0.60;99.90
10155;DHT22;5118;48.570;7.916;2023-03-15T04:39:09;-0.70;99.90
10155;DHT22;5118;48.570;7.916;2023-03-15T04:42:01;-0.70;99.90
10155;DHT22;5118;48.570;7.916;2023-03-15T04:44:47;-0.70;99.90
10155;DHT22;5118;48.570;7.916;2023-03-15T04:47:27;-0.70;99.90
10155;DHT22;5118;48.570;7.916;2023-03-15T04:50:10;-0.70;99.90
10155;DHT22;5118;48.570;7.916;2023-03-15T04:52:56;-0.70;99.90
10155;DHT22;5118;48.570;7.916;2023-03-15T04:55:45;-0.70;99.90
10155;DHT22;5118;48.570;7.916;2023-03-15T04:58:32;-0.70;99.90
10155;DHT22;5118;48.570;7.916;2023-03-15T05:01:26;-0.70;99.90
10155;DHT22;5118;48.570;7.916;2023-03-15T05:04:15;-0.70;99.90
10155;DHT22;5118;48.570;7.916;2023-03-15T05:06:53;-0.70;99.90
10155;DHT22;5118;48.570;7.916;2023-03-15T05:09:41;-0.70;99.90
10155;DHT22;5118;48.570;7.916;2023-03-15T05:12:26;-0.70;99.90
10155;DHT22;5118;48.570;7.916;2023-03-15T05:15:13;-0.80;99.90
10155;DHT22;5118;48.570;7.916;2023-03-15T05:18:11;-0.80;99.90
10155;DHT22;5118;48.570;7.916;2023-03-15T05:21:03;-0.80;99.90
10155;DHT22;5118;48.570;7.916;2023-03-15T05:23:42;-0.80;99.90
10155;DHT22;5118;48.570;7.916;2023-03-15T05:26:37;-0.90;99.90
10155;DHT22;5118;48.570;7.916;2023-03-15T05:29:14;-0.90;99.90
10155;DHT22;5118;48.570;7.916;2023-03-15T05:31:58;-0.90;99.90
10155;DHT22;5118;48.570;7.916;2023-03-15T05:34:47;-0.90;99.90
10155;DHT22;5118;48.570;7.916;2023-03-15T05:37:38;-0.80;99.90
10155;DHT22;5118;48.570;7.916;2023-03-15T05:40:35;-0.90;99.90
10155;DHT22;5118;48.570;7.916;2023-03-15T05:43:34;-0.90;99.90
10155;DHT22;5118;48.570;7.916;2023-03-15T05:46:11;-0.90;99.90
10155;DHT22;5118;48.570;7.916;2023-03-15T05:49:02;-0.90;99.90
10155;DHT22;5118;48.570;7.916;2023-03-15T05:51:36;-0.90;99.90
10155;DHT22;5118;48.570;7.916;2023-03-15T05:54:31;-0.90;99.90
10155;DHT22;5118;48.570;7.916;2023-03-15T05:57:18;-0.90;99.90
10155;DHT22;5118;48.570;7.916;2023-03-15T06:00:12;-0.90;99.90
10155;DHT22;5118;48.570;7.916;2023-03-15T06:02:42;-0.90;99.90
10155;DHT22;5118;48.570;7.916;2023-03-15T06:05:24;-0.80;99.90
10155;DHT22;5118;48.570;7.916;2023-03-15T06:07:55;-0.80;99.90
10155;DHT22;5118;48.570;7.916;2023-03-15T06:10:23;-0.70;99.90
10155;DHT22;5118;48.570;7.916;2023-03-15T06:12:53;-0.60;99.90
10155;DHT22;5118;48.570;7.916;2023-03-15T06:15:24;-0.50;99.90
10155;DHT22;5118;48.570;7.916;2023-03-15T06:17:54;-0.40;99.90
10155;DHT22;5118;48.570;7.916;2023-03-15T06:20:22;-0.30;99.90
10155;DHT22;5118;48.570;7.916;2023-03-15T06:22:50;-0.30;99.90
10155;DHT22;5118;48.570;7.916;2023-03-15T06:25:27;-0.20;99.90
10155;DHT22;5118;48.570;7.916;2023-03-15T06:27:57;-0.10;99.90
10155;DHT22;5118;48.570;7.916;2023-03-15T06:30:27;-0.10;99.90
10155;DHT22;5118;48.570;7.916;2023-03-15T06:32:58;0.00;99.90
10155;DHT22;5118;48.570;7.916;2023-03-15T06:35:29;0.10;99.90
10155;DHT22;5118;48.570;7.916;2023-03-15T06:37:57;0.20;99.90
10155;DHT22;5118;48.570;7.916;2023-03-15T06:40:26;0.20;99.90
10155;DHT22;5118;48.570;7.916;2023-03-15T06:42:54;0.30;99.90
10155;DHT22;5118;48.570;7.916;2023-03-15T06:45:23;0.40;99.90
10155;DHT22;5118;48.570;7.916;2023-03-15T06:47:54;0.50;99.90
10155;DHT22;5118;48.570;7.916;2023-03-15T06:50:23;0.60;99.90
10155;DHT22;5118;48.570;7.916;2023-03-15T06:52:55;0.70;99.90
10155;DHT22;5118;48.570;7.916;2023-03-15T06:55:26;0.80;99.90
10155;DHT22;5118;48.570;7.916;2023-03-15T06:57:54;0.90;99.90
10155;DHT22;5118;48.570;7.916;2023-03-15T07:00:23;1.00;99.90
10155;DHT22;5118;48.570;7.916;2023-03-15T07:02:53;1.10;99.90
10155;DHT22;5118;48.570;7.916;2023-03-15T07:05:21;1.20;99.90
10155;DHT22;5118;48.570;7.916;2023-03-15T07:07:49;1.30;99.90
10155;DHT22;5118;48.570;7.916;2023-03-15T07:10:18;1.40;99.90
10155;DHT22;5118;48.570;7.916;2023-03-15T07:12:47;1.60;99.90
10155;DHT22;5118;48.570;7.916;2023-03-15T07:15:15;1.70;99.90
10155;DHT22;5118;48.570;7.916;2023-03-15T07:17:43;1.80;99.90
10155;DHT22;5118;48.570;7.916;2023-03-15T07:20:13;1.90;99.90
10155;DHT22;5118;48.570;7.916;2023-03-15T07:22:41;2.10;99.90
10155;DHT22;5118;48.570;7.916;2023-03-15T07:25:11;2.30;99.90
10155;DHT22;5118;48.570;7.916;2023-03-15T07:27:39;2.40;99.90
10155;DHT22;5118;48.570;7.916;2023-03-15T07:30:09;2.60;99.90
10155;DHT22;5118;48.570;7.916;2023-03-15T07:32:37;2.70;99.90
10155;DHT22;5118;48.570;7.916;2023-03-15T07:35:06;2.80;99.90
10155;DHT22;5118;48.570;7.916;2023-03-15T07:37:39;3.00;99.90
10155;DHT22;5118;48.570;7.916;2023-03-15T07:40:12;3.10;99.90
10155;DHT22;5118;48.570;7.916;2023-03-15T07:42:42;3.30;99.90
10155;DHT22;5118;48.570;7.916;2023-03-15T07:45:12;3.40;99.90
10155;DHT22;5118;48.570;7.916;2023-03-15T07:47:41;3.60;99.90
10155;DHT22;5118;48.570;7.916;2023-03-15T07:50:10;3.70;99.90
10155;DHT22;5118;48.570;7.916;2023-03-15T07:52:44;3.90;99.90
10155;DHT22;5118;48.570;7.916;2023-03-15T07:55:12;4.10;99.90
10155;DHT22;5118;48.570;7.916;2023-03-15T07:57:41;4.20;99.90
10155;DHT22;5118;48.570;7.916;2023-03-15T08:00:10;4.30;99.90
10155;DHT22;5118;48.570;7.916;2023-03-15T08:02:39;4.50;99.90
10155;DHT22;5118;48.570;7.916;2023-03-15T08:05:10;4.50;99.90
10155;DHT22;5118;48.570;7.916;2023-03-15T08:07:38;4.60;99.90
10155;DHT22;5118;48.570;7.916;2023-03-15T08:10:09;4.60;99.90
10155;DHT22;5118;48.570;7.916;2023-03-15T08:12:37;4.70;99.90
10155;DHT22;5118;48.570;7.916;2023-03-15T08:15:08;4.70;99.90
10155;DHT22;5118;48.570;7.916;2023-03-15T08:17:36;4.80;99.90
10155;DHT22;5118;48.570;7.916;2023-03-15T08:20:05;4.90;99.90
10155;DHT22;5118;48.570;7.916;2023-03-15T08:22:37;5.00;99.90
10155;DHT22;5118;48.570;7.916;2023-03-15T08:25:07;5.10;99.90
10155;DHT22;5118;48.570;7.916;2023-03-15T08:27:36;5.20;99.90
10155;DHT22;5118;48.570;7.916;2023-03-15T08:30:06;5.30;99.90
10155;DHT22;5118;48.570;7.916;2023-03-15T08:32:34;5.40;99.90
10155;DHT22;5118;48.570;7.916;2023-03-15T08:35:02;5.40;99.90
10155;DHT22;5118;48.570;7.916;2023-03-15T08:37:31;5.30;99.90
10155;DHT22;5118;48.570;7.916;2023-03-15T08:40:00;5.30;99.90
10155;DHT22;5118;48.570;7.916;2023-03-15T08:42:35;5.20;99.90
10155;DHT22;5118;48.570;7.916;2023-03-15T08:45:04;5.20;99.90
10155;DHT22;5118;48.570;7.916;2023-03-15T08:47:33;5.20;99.90
10155;DHT22;5118;48.570;7.916;2023-03-15T08:50:02;5.30;99.90
10155;DHT22;5118;48.570;7.916;2023-03-15T08:52:31;5.40;99.90
10155;DHT22;5118;48.570;7.916;2023-03-15T08:54:59;5.40;99.90
10155;DHT22;5118;48.570;7.916;2023-03-15T08:57:30;5.50;99.90
10155;DHT22;5118;48.570;7.916;2023-03-15T09:00:01;5.70;99.90
10155;DHT22;5118;48.570;7.916;2023-03-15T09:02:34;5.70;99.90
10155;DHT22;5118;48.570;7.916;2023-03-15T09:05:02;5.70;99.90
10155;DHT22;5118;48.570;7.916;2023-03-15T09:07:33;5.80;99.90
10155;DHT22;5118;48.570;7.916;2023-03-15T09:10:01;5.90;99.90
10155;DHT22;5118;48.570;7.916;2023-03-15T09:12:31;5.90;99.90
10155;DHT22;5118;48.570;7.916;2023-03-15T09:15:01;6.10;99.90
10155;DHT22;5118;48.570;7.916;2023-03-15T09:17:29;6.30;99.90
10155;DHT22;5118;48.570;7.916;2023-03-15T09:19:57;6.50;99.90
10155;DHT22;5118;48.570;7.916;2023-03-15T09:22:25;6.70;99.90
10155;DHT22;5118;48.570;7.916;2023-03-15T09:25:06;6.90;99.90
10155;DHT22;5118;48.570;7.916;2023-03-15T09:27:35;7.10;99.90
10155;DHT22;5118;48.570;7.916;2023-03-15T09:30:06;7.30;99.90
10155;DHT22;5118;48.570;7.916;2023-03-15T09:32:35;7.40;99.90
10155;DHT22;5118;48.570;7.916;2023-03-15T09:35:04;7.50;99.90
10155;DHT22;5118;48.570;7.916;2023-03-15T09:37:33;7.50;99.90
10155;DHT22;5118;48.570;7.916;2023-03-15T09:40:02;7.60;99.90
10155;DHT22;5118;48.570;7.916;2023-03-15T09:42:39;7.60;99.90
10155;DHT22;5118;48.570;7.916;2023-03-15T09:45:17;7.80;99.90
10155;DHT22;5118;48.570;7.916;2023-03-15T09:47:57;7.90;99.90
10155;DHT22;5118;48.570;7.916;2023-03-15T09:50:31;7.90;99.90
10155;DHT22;5118;48.570;7.916;2023-03-15T09:53:03;8.00;99.90
10155;DHT22;5118;48.570;7.916;2023-03-15T09:55:32;8.10;99.90
10155;DHT22;5118;48.570;7.916;2023-03-15T09:58:02;8.00;99.90
10155;DHT22;5118;48.570;7.916;2023-03-15T10:00:39;7.90;99.90
10155;DHT22;5118;48.570;7.916;2023-03-15T10:03:16;7.80;99.90
10155;DHT22;5118;48.570;7.916;2023-03-15T10:05:48;7.80;99.90
10155;DHT22;5118;48.570;7.916;2023-03-15T10:08:20;7.90;99.90
10155;DHT22;5118;48.570;7.916;2023-03-15T10:10:51;8.00;99.90
10155;DHT22;5118;48.570;7.916;2023-03-15T10:13:32;8.00;99.90
10155;DHT22;5118;48.570;7.916;2023-03-15T10:16:12;8.10;99.90
10155;DHT22;5118;48.570;7.916;2023-03-15T10:18:51;8.10;99.90
10155;DHT22;5118;48.570;7.916;2023-03-15T10:21:30;8.20;99.90
10155;DHT22;5118;48.570;7.916;2023-03-15T10:24:01;8.20;99.90
10155;DHT22;5118;48.570;7.916;2023-03-15T10:26:36;8.20;99.90
10155;DHT22;5118;48.570;7.916;2023-03-15T10:29:12;8.20;99.90
10155;DHT22;5118;48.570;7.916;2023-03-15T10:31:44;8.10;99.90
10155;DHT22;5118;48.570;7.916;2023-03-15T10:34:18;8.20;99.90
10155;DHT22;5118;48.570;7.916;2023-03-15T10:36:49;8.20;99.90
10155;DHT22;5118;48.570;7.916;2023-03-15T10:39:21;8.20;99.90
10155;DHT22;5118;48.570;7.916;2023-03-15T10:41:50;8.20;99.90
10155;DHT22;5118;48.570;7.916;2023-03-15T10:44:21;8.40;99.90
10155;DHT22;5118;48.570;7.916;2023-03-15T10:47:02;8.50;99.90
10155;DHT22;5118;48.570;7.916;2023-03-15T10:49:48;8.80;99.90
10155;DHT22;5118;48.570;7.916;2023-03-15T10:52:31;9.40;99.90
10155;DHT22;5118;48.570;7.916;2023-03-15T10:55:04;9.90;99.90
10155;DHT22;5118;48.570;7.916;2023-03-15T10:57:36;10.30;99.90
10155;DHT22;5118;48.570;7.916;2023-03-15T11:00:20;10.90;99.90
10155;DHT22;5118;48.570;7.916;2023-03-15T11:03:00;11.20;99.90
10155;DHT22;5118;48.570;7.916;2023-03-15T11:05:30;11.30;99.90
10155;DHT22;5118;48.570;7.916;2023-03-15T11:08:00;11.20;99.90
10155;DHT22;5118;48.570;7.916;2023-03-15T11:10:33;11.10;99.90
10155;DHT22;5118;48.570;7.916;2023-03-15T11:13:10;11.30;99.90
10155;DHT22;5118;48.570;7.916;2023-03-15T11:15:39;11.80;99.90
10155;DHT22;5118;48.570;7.916;2023-03-15T11:18:16;12.30;99.90
10155;DHT22;5118;48.570;7.916;2023-03-15T11:20:45;12.80;99.40
10155;DHT22;5118;48.570;7.916;2023-03-15T11:23:15;13.10;99.70
10155;DHT22;5118;48.570;7.916;2023-03-15T11:25:45;13.30;99.50
10155;DHT22;5118;48.570;7.916;2023-03-15T11:28:17;13.70;98.50
10155;DHT22;5118;48.570;7.916;2023-03-15T11:30:46;14.10;96.10
10155;DHT22;5118;48.570;7.916;2023-03-15T11:33:26;14.80;95.80
10155;DHT22;5118;48.570;7.916;2023-03-15T11:36:02;15.30;94.70
10155;DHT22;5118;48.570;7.916;2023-03-15T11:38:34;15.40;92.10
10155;DHT22;5118;48.570;7.916;2023-03-15T11:44:07;15.40;90.30
10155;DHT22;5118;48.570;7.916;2023-03-15T11:46:41;15.40;88.80
10155;DHT22;5118;48.570;7.916;2023-03-15T11:49:16;15.60;83.90
10155;DHT22;5118;48.570;7.916;2023-03-15T11:51:46;15.40;81.30
10155;DHT22;5118;48.570;7.916;2023-03-15T11:54:16;14.90;83.10
10155;DHT22;5118;48.570;7.916;2023-03-15T11:56:53;14.30;83.00
10155;DHT22;5118;48.570;7.916;2023-03-15T11:59:26;14.20;85.60
10155;DHT22;5118;48.570;7.916;2023-03-15T12:01:57;14.00;84.80
10155;DHT22;5118;48.570;7.916;2023-03-15T12:04:45;14.20;88.90
10155;DHT22;5118;48.570;7.916;2023-03-15T12:07:37;14.30;82.80
10155;DHT22;5118;48.570;7.916;2023-03-15T12:10:41;14.00;80.00
10155;DHT22;5118;48.570;7.916;2023-03-15T12:13:22;13.90;79.50
10155;DHT22;5118;48.570;7.916;2023-03-15T12:15:51;13.60;80.30
10155;DHT22;5118;48.570;7.916;2023-03-15T12:21:16;13.30;80.30
10155;DHT22;5118;48.570;7.916;2023-03-15T12:23:48;13.40;78.90
10155;DHT22;5118;48.570;7.916;2023-03-15T12:26:25;13.60;81.90
10155;DHT22;5118;48.570;7.916;2023-03-15T12:29:05;13.50;80.80
10155;DHT22;5118;48.570;7.916;2023-03-15T12:31:49;13.20;77.20
10155;DHT22;5118;48.570;7.916;2023-03-15T12:34:24;12.60;75.50
10155;DHT22;5118;48.570;7.916;2023-03-15T12:36:58;12.00;74.90
10155;DHT22;5118;48.570;7.916;2023-03-15T12:39:40;11.60;78.00
10155;DHT22;5118;48.570;7.916;2023-03-15T12:45:33;10.80;78.40
10155;DHT22;5118;48.570;7.916;2023-03-15T12:48:23;10.60;78.40
10155;DHT22;5118;48.570;7.916;2023-03-15T12:50:55;10.40;76.30
10155;DHT22;5118;48.570;7.916;2023-03-15T12:56:43;10.10;80.80
10155;DHT22;5118;48.570;7.916;2023-03-15T12:59:29;10.00;81.60
10155;DHT22;5118;48.570;7.916;2023-03-15T13:02:01;9.90;82.00
10155;DHT22;5118;48.570;7.916;2023-03-15T13:04:30;9.80;83.60
10155;DHT22;5118;48.570;7.916;2023-03-15T13:07:16;9.70;84.70
10155;DHT22;5118;48.570;7.916;2023-03-15T13:10:11;9.70;85.50
10155;DHT22;5118;48.570;7.916;2023-03-15T13:12:48;9.60;91.10
10155;DHT22;5118;48.570;7.916;2023-03-15T13:15:22;9.40;93.20
10155;DHT22;5118;48.570;7.916;2023-03-15T13:17:56;9.20;95.30
10155;DHT22;5118;48.570;7.916;2023-03-15T13:20:47;9.10;96.90
10155;DHT22;5118;48.570;7.916;2023-03-15T13:23:19;9.20;99.80
10155;DHT22;5118;48.570;7.916;2023-03-15T13:26:02;9.40;99.90
10155;DHT22;5118;48.570;7.916;2023-03-15T13:28:38;9.60;99.90
10155;DHT22;5118;48.570;7.916;2023-03-15T13:31:12;10.00;99.90
10155;DHT22;5118;48.570;7.916;2023-03-15T13:33:46;10.60;99.90
10155;DHT22;5118;48.570;7.916;2023-03-15T13:36:17;11.30;99.90
10155;DHT22;5118;48.570;7.916;2023-03-15T13:38:48;12.20;99.90
10155;DHT22;5118;48.570;7.916;2023-03-15T13:41:20;12.80;99.90
10155;DHT22;5118;48.570;7.916;2023-03-15T13:43:51;13.00;99.90
10155;DHT22;5118;48.570;7.916;2023-03-15T13:46:22;12.90;99.90
10155;DHT22;5118;48.570;7.916;2023-03-15T13:48:52;13.00;99.90
10155;DHT22;5118;48.570;7.916;2023-03-15T13:51:24;13.00;99.90
10155;DHT22;5118;48.570;7.916;2023-03-15T13:53:55;12.70;99.10
10155;DHT22;5118;48.570;7.916;2023-03-15T13:56:31;12.20;99.10
10155;DHT22;5118;48.570;7.916;2023-03-15T13:59:17;11.60;99.60
10155;DHT22;5118;48.570;7.916;2023-03-15T14:01:46;11.00;99.90
10155;DHT22;5118;48.570;7.916;2023-03-15T14:04:21;10.60;99.90
10155;DHT22;5118;48.570;7.916;2023-03-15T14:06:50;10.00;99.90
10155;DHT22;5118;48.570;7.916;2023-03-15T14:09:29;9.50;99.90
10155;DHT22;5118;48.570;7.916;2023-03-15T14:12:04;9.00;99.90
10155;DHT22;5118;48.570;7.916;2023-03-15T14:14:36;8.90;99.90
10155;DHT22;5118;48.570;7.916;2023-03-15T14:17:16;8.80;99.90
10155;DHT22;5118;48.570;7.916;2023-03-15T14:19:51;8.50;99.90
10155;DHT22;5118;48.570;7.916;2023-03-15T14:22:20;8.50;99.90
10155;DHT22;5118;48.570;7.916;2023-03-15T14:24:49;8.50;99.90
10155;DHT22;5118;48.570;7.916;2023-03-15T14:27:21;8.60;99.90
10155;DHT22;5118;48.570;7.916;2023-03-15T14:29:51;8.60;99.90
10155;DHT22;5118;48.570;7.916;2023-03-15T14:32:27;8.70;99.90
10155;DHT22;5118;48.570;7.916;2023-03-15T14:34:59;8.80;99.90
10155;DHT22;5118;48.570;7.916;2023-03-15T14:37:34;9.30;99.90
10155;DHT22;5118;48.570;7.916;2023-03-15T14:40:16;10.00;99.90
10155;DHT22;5118;48.570;7.916;2023-03-15T14:42:48;10.80;99.90
10155;DHT22;5118;48.570;7.916;2023-03-15T14:45:17;11.30;99.90
10155;DHT22;5118;48.570;7.916;2023-03-15T14:47:49;12.00;99.90
10155;DHT22;5118;48.570;7.916;2023-03-15T14:50:25;12.80;99.90
10155;DHT22;5118;48.570;7.916;2023-03-15T14:52:56;13.50;99.90
10155;DHT22;5118;48.570;7.916;2023-03-15T14:55:28;13.80;99.90
10155;DHT22;5118;48.570;7.916;2023-03-15T14:58:01;14.20;99.90
10155;DHT22;5118;48.570;7.916;2023-03-15T15:00:29;14.80;99.90
10155;DHT22;5118;48.570;7.916;2023-03-15T15:02:59;15.10;99.90
10155;DHT22;5118;48.570;7.916;2023-03-15T15:05:29;15.00;98.40
10155;DHT22;5118;48.570;7.916;2023-03-15T15:08:02;14.90;97.90
10155;DHT22;5118;48.570;7.916;2023-03-15T15:10:31;15.20;98.00
10155;DHT22;5118;48.570;7.916;2023-03-15T15:13:02;15.10;96.70
10155;DHT22;5118;48.570;7.916;2023-03-15T15:15:33;15.00;95.90
10155;DHT22;5118;48.570;7.916;2023-03-15T15:18:20;14.80;95.30
10155;DHT22;5118;48.570;7.916;2023-03-15T15:20:49;14.10;94.80
10155;DHT22;5118;48.570;7.916;2023-03-15T15:23:22;13.80;94.90
10155;DHT22;5118;48.570;7.916;2023-03-15T15:25:54;13.00;94.10
10155;DHT22;5118;48.570;7.916;2023-03-15T15:28:25;12.60;94.70
10155;DHT22;5118;48.570;7.916;2023-03-15T15:31:03;12.20;95.00
10155;DHT22;5118;48.570;7.916;2023-03-15T15:33:32;11.90;95.60
10155;DHT22;5118;48.570;7.916;2023-03-15T15:36:01;11.60;96.10
10155;DHT22;5118;48.570;7.916;2023-03-15T15:38:32;11.20;96.30
10155;DHT22;5118;48.570;7.916;2023-03-15T15:41:09;10.90;96.80
10155;DHT22;5118;48.570;7.916;2023-03-15T15:43:41;10.70;97.20
10155;DHT22;5118;48.570;7.916;2023-03-15T15:46:10;10.50;97.50
10155;DHT22;5118;48.570;7.916;2023-03-15T15:48:39;10.20;98.00
10155;DHT22;5118;48.570;7.916;2023-03-15T15:51:21;10.00;98.50
10155;DHT22;5118;48.570;7.916;2023-03-15T15:53:50;9.90;99.20
10155;DHT22;5118;48.570;7.916;2023-03-15T15:56:19;9.70;99.60
10155;DHT22;5118;48.570;7.916;2023-03-15T15:58:50;9.70;99.90
10155;DHT22;5118;48.570;7.916;2023-03-15T16:01:19;9.70;99.90
10155;DHT22;5118;48.570;7.916;2023-03-15T16:03:47;9.80;99.90
10155;DHT22;5118;48.570;7.916;2023-03-15T16:06:19;10.20;99.90
10155;DHT22;5118;48.570;7.916;2023-03-15T16:08:49;10.50;99.90
10155;DHT22;5118;48.570;7.916;2023-03-15T16:11:19;10.60;99.90
10155;DHT22;5118;48.570;7.916;2023-03-15T16:13:51;10.40;99.90
10155;DHT22;5118;48.570;7.916;2023-03-15T16:16:20;10.40;99.90
10155;DHT22;5118;48.570;7.916;2023-03-15T16:18:49;10.30;99.90
10155;DHT22;5118;48.570;7.916;2023-03-15T16:21:25;10.10;99.90
10155;DHT22;5118;48.570;7.916;2023-03-15T16:23:59;9.80;99.90
10155;DHT22;5118;48.570;7.916;2023-03-15T16:26:28;9.50;99.90
10155;DHT22;5118;48.570;7.916;2023-03-15T16:28:58;9.30;99.90
10155;DHT22;5118;48.570;7.916;2023-03-15T16:31:28;9.10;99.90
10155;DHT22;5118;48.570;7.916;2023-03-15T16:34:00;8.90;99.90
10155;DHT22;5118;48.570;7.916;2023-03-15T16:36:30;8.70;99.90
10155;DHT22;5118;48.570;7.916;2023-03-15T16:39:00;8.60;99.90
10155;DHT22;5118;48.570;7.916;2023-03-15T16:41:28;8.40;99.90
10155;DHT22;5118;48.570;7.916;2023-03-15T16:43:58;8.30;99.90
10155;DHT22;5118;48.570;7.916;2023-03-15T16:46:27;8.20;99.90
10155;DHT22;5118;48.570;7.916;2023-03-15T16:48:55;8.10;99.90